Time;durP1;ratioP1;P1;durP2;ratioP2;P2;SDS_P1;SDS_P2;PMS_P1;PMS_P2;Temp;Humidity;BMP_temperature;BMP_pressure;BME280_temperature;BME280_humidity;BME280_pressure;Samples;Min_cycle;Max_cycle;Signal;HPM_P1;HPM_P2
2022/12/22 15:03:31;;;;;;;13.98;9.52;;;9.40;85.70;;;;;;5091062;28;20364;-58
2022/12/22 15:06:36;;;;;;;24.48;12.55;;;9.40;86.00;;;;;;5054737;28;20032;-60
2022/12/22 15:09:10;;;;;;;19.92;11.20;;;9.50;85.80;;;;;;5055650;28;20036;-61
2022/12/22 15:11:43;;;;;;;26.60;10.60;;;9.70;85.30;;;;;;5073395;28;20028;-60
2022/12/22 15:14:16;;;;;;;15.93;9.93;;;9.50;85.60;;;;;;5072496;28;20025;-59
2022/12/22 15:16:42;;;;;;;21.50;10.95;;;9.50;85.80;;;;;;5033755;28;20116;-62
2022/12/22 15:19:13;;;;;;;17.92;10.65;;;9.50;86.00;;;;;;5049244;28;20045;-59
2022/12/22 15:21:39;;;;;;;18.48;9.95;;;9.50;85.80;;;;;;5049709;28;20102;-62
2022/12/22 15:24:14;;;;;;;23.23;11.45;;;9.50;85.70;;;;;;5049771;28;20033;-58
2022/12/22 15:26:40;;;;;;;29.88;14.43;;;9.50;85.90;;;;;;5049672;28;20060;-59
2022/12/22 15:29:07;;;;;;;20.75;10.20;;;9.30;86.40;;;;;;5049641;28;20022;-60
2022/12/22 15:31:33;;;;;;;24.42;11.48;;;9.30;86.80;;;;;;5049720;28;20026;-57
2022/12/22 15:34:00;;;;;;;24.95;10.52;;;9.20;87.00;;;;;;5031777;28;20033;-59
2022/12/22 15:36:26;;;;;;;24.90;11.70;;;9.20;87.00;;;;;;5032123;28;20037;-59
2022/12/22 15:38:52;;;;;;;21.65;10.55;;;9.20;87.30;;;;;;5031791;28;20436;-60
2022/12/22 15:41:18;;;;;;;20.52;10.88;;;9.30;87.30;;;;;;5031717;28;20029;-58
2022/12/22 15:43:43;;;;;;;14.88;9.77;;;9.30;87.20;;;;;;5049519;28;20022;-60
2022/12/22 15:46:16;;;;;;;16.63;9.80;;;9.30;87.10;;;;;;5049378;28;20063;-53
2022/12/22 15:48:42;;;;;;;17.73;9.55;;;9.30;87.20;;;;;;5049534;28;20030;-58
2022/12/22 15:51:24;;;;;;;16.98;8.75;;;9.30;87.30;;;;;;5049557;28;20033;-58
2022/12/22 15:53:50;;;;;;;15.52;9.75;;;9.20;87.60;;;;;;5049520;28;20017;-63
2022/12/22 15:56:22;;;;;;;17.23;9.32;;;9.10;87.80;;;;;;5049601;28;20033;-59
2022/12/22 15:58:48;;;;;;;21.30;10.93;;;9.10;87.90;;;;;;5031982;28;20111;-61
2022/12/22 16:01:14;;;;;;;20.70;10.88;;;9.20;87.70;;;;;;5032439;28;20053;-60
2022/12/22 16:03:39;;;;;;;16.52;10.05;;;9.20;87.90;;;;;;5048922;28;20021;-58
2022/12/22 16:06:08;;;;;;;18.77;9.52;;;9.20;88.10;;;;;;5049144;28;20100;-60
2022/12/22 16:08:39;;;;;;;20.05;9.95;;;9.10;88.30;;;;;;5049062;28;20471;-61
2022/12/22 16:11:06;;;;;;;23.45;12.63;;;9.10;88.40;;;;;;5049128;28;20029;-61
2022/12/22 16:13:32;;;;;;;17.08;10.23;;;9.10;88.50;;;;;;5040457;28;20060;-58
2022/12/22 16:15:58;;;;;;;23.58;11.30;;;9.20;88.60;;;;;;5035483;28;20061;-61
2022/12/22 16:18:24;;;;;;;24.25;11.93;;;9.10;88.70;;;;;;5035750;28;20022;-58
2022/12/22 16:20:50;;;;;;;19.17;11.10;;;9.20;88.80;;;;;;5035439;28;20032;-61
2022/12/22 16:23:23;;;;;;;18.75;9.73;;;9.20;88.60;;;;;;5035169;28;20359;-59
2022/12/22 16:25:50;;;;;;;26.95;11.73;;;9.20;88.70;;;;;;5035504;28;20520;-60
2022/12/22 16:28:22;;;;;;;19.27;12.38;;;9.10;88.90;;;;;;5034275;28;20072;-59
2022/12/22 16:30:50;;;;;;;24.45;14.13;;;9.10;89.20;;;;;;5034006;28;20075;-59
2022/12/22 16:33:17;;;;;;;18.75;11.88;;;9.20;89.30;;;;;;5035615;28;20021;-60
2022/12/22 16:35:43;;;;;;;25.52;13.70;;;9.10;89.40;;;;;;5035427;28;20083;-58
2022/12/22 16:38:09;;;;;;;20.73;12.38;;;9.10;89.90;;;;;;5035283;28;20030;-58
2022/12/22 16:40:41;;;;;;;27.17;13.68;;;9.00;89.90;;;;;;5035659;28;20025;-56
2022/12/22 16:43:34;;;;;;;23.15;13.60;;;9.00;90.20;;;;;;5035738;28;20424;-57
2022/12/22 16:46:01;;;;;;;23.25;14.05;;;9.10;90.50;;;;;;5035432;28;20025;-60
2022/12/22 16:48:50;;;;;;;25.15;13.70;;;9.10;90.30;;;;;;5035195;28;20033;-56
2022/12/22 16:51:32;;;;;;;21.73;13.75;;;9.00;90.50;;;;;;5035868;28;20167;-59
2022/12/22 16:53:58;;;;;;;27.83;14.73;;;9.00;90.70;;;;;;5035022;28;20401;-60
2022/12/22 16:56:25;;;;;;;24.42;14.00;;;9.00;90.90;;;;;;5034914;28;20037;-59
2022/12/22 16:58:51;;;;;;;30.98;17.02;;;8.90;91.00;;;;;;5033578;28;20044;-59
2022/12/22 17:01:28;;;;;;;32.95;14.45;;;8.80;91.40;;;;;;5029575;28;20046;-61
2022/12/22 17:03:55;;;;;;;27.77;15.35;;;8.90;91.60;;;;;;5015285;28;20049;-59
2022/12/22 17:06:21;;;;;;;28.25;15.35;;;8.80;91.80;;;;;;5014720;28;20026;-60
2022/12/22 17:08:47;;;;;;;32.17;15.25;;;8.80;91.70;;;;;;5015057;28;20036;-58
2022/12/22 17:11:21;;;;;;;25.38;14.80;;;8.80;91.90;;;;;;5014790;28;20022;-59
2022/12/22 17:13:49;;;;;;;30.00;15.32;;;8.90;92.00;;;;;;5014742;28;20030;-60
2022/12/22 17:16:21;;;;;;;30.92;15.77;;;8.80;92.00;;;;;;5014809;28;20025;-60
2022/12/22 17:18:48;;;;;;;25.73;13.90;;;8.90;92.10;;;;;;5014559;28;20037;-60
2022/12/22 17:21:17;;;;;;;28.08;15.43;;;9.00;92.20;;;;;;5014380;28;20033;-61
2022/12/22 17:23:47;;;;;;;28.02;15.10;;;8.80;92.10;;;;;;5014970;28;20030;-61
2022/12/22 17:26:17;;;;;;;27.30;15.20;;;8.80;92.40;;;;;;5013709;28;20381;-59
2022/12/22 17:28:44;;;;;;;26.63;16.88;;;8.70;92.50;;;;;;5014587;28;20018;-59
2022/12/22 17:31:17;;;;;;;37.13;16.73;;;8.70;92.90;;;;;;5014751;28;20030;-59
2022/12/22 17:33:43;;;;;;;50.10;21.23;;;8.80;93.00;;;;;;5014514;28;20073;-62
2022/12/22 17:36:18;;;;;;;35.25;19.30;;;8.80;92.90;;;;;;5014408;28;20026;-58
2022/12/22 17:38:46;;;;;;;32.90;17.50;;;8.80;93.20;;;;;;5014867;28;20050;-60
2022/12/22 17:41:14;;;;;;;27.17;15.85;;;8.60;93.50;;;;;;5014487;28;20033;-59
2022/12/22 17:43:40;;;;;;;37.50;19.75;;;8.60;93.70;;;;;;5014624;28;20022;-60
2022/12/22 17:46:13;;;;;;;33.08;17.52;;;8.60;93.90;;;;;;5014341;28;20040;-60
2022/12/22 17:48:38;;;;;;;34.22;17.13;;;8.70;93.90;;;;;;5014704;28;20026;-60
2022/12/22 17:51:04;;;;;;;22.80;11.63;;;8.70;93.80;;;;;;5014268;28;20034;-59
2022/12/22 17:53:30;;;;;;;29.77;16.30;;;8.70;93.80;;;;;;5014005;28;20425;-59
2022/12/22 17:55:56;;;;;;;31.10;16.77;;;8.70;93.90;;;;;;4996325;28;20088;-58
2022/12/22 17:58:21;;;;;;;29.95;15.38;;;8.60;94.00;;;;;;5014619;28;20440;-59
2022/12/22 18:00:47;;;;;;;31.60;15.55;;;8.60;94.00;;;;;;5014179;28;20061;-61
2022/12/22 18:03:13;;;;;;;27.38;15.48;;;8.60;94.10;;;;;;5014781;28;20025;-61
2022/12/22 18:05:44;;;;;;;23.90;13.98;;;8.60;94.20;;;;;;5013842;28;20014;-59
2022/12/22 18:08:17;;;;;;;32.58;15.65;;;8.70;94.30;;;;;;4996601;28;20121;-61
2022/12/22 18:10:44;;;;;;;36.60;15.55;;;8.70;94.30;;;;;;5014041;28;20022;-61
2022/12/22 18:13:19;;;;;;;28.00;15.32;;;8.80;94.30;;;;;;5013792;28;20036;-59
2022/12/22 18:15:44;;;;;;;31.40;15.25;;;8.80;94.40;;;;;;5013678;28;20030;-61
2022/12/22 18:18:15;;;;;;;27.58;14.27;;;8.80;94.40;;;;;;5013714;28;20478;-61
2022/12/22 18:20:42;;;;;;;25.65;14.13;;;8.80;94.40;;;;;;5013837;28;20052;-55
2022/12/22 18:23:21;;;;;;;29.40;14.00;;;8.80;94.40;;;;;;5013716;28;20394;-59
2022/12/22 18:25:46;;;;;;;23.48;13.18;;;8.90;94.50;;;;;;5013613;28;20018;-59
2022/12/22 18:28:14;;;;;;;25.38;13.35;;;8.90;94.50;;;;;;5013682;28;20488;-63
2022/12/22 18:30:40;;;;;;;22.90;12.65;;;9.00;94.60;;;;;;5013855;28;20026;-61
2022/12/22 18:33:06;;;;;;;20.73;12.27;;;9.00;94.50;;;;;;5014099;28;20596;-61
2022/12/22 18:35:32;;;;;;;20.10;10.75;;;9.10;94.50;;;;;;5013292;28;20117;-60
2022/12/22 18:37:58;;;;;;;24.83;12.13;;;9.10;94.50;;;;;;5013814;28;20038;-59
2022/12/22 18:40:25;;;;;;;19.95;12.07;;;9.00;94.50;;;;;;5013197;28;20041;-58
2022/12/22 18:42:52;;;;;;;19.95;11.50;;;9.00;94.50;;;;;;5013102;28;20105;-58
2022/12/22 18:45:22;;;;;;;25.77;13.48;;;9.20;94.60;;;;;;5013090;28;20447;-59
2022/12/22 18:47:48;;;;;;;19.23;11.60;;;9.20;94.50;;;;;;5013345;28;20050;-59
2022/12/22 18:50:23;;;;;;;19.38;10.25;;;9.20;94.50;;;;;;5013228;28;20029;-55
2022/12/22 18:52:51;;;;;;;22.80;13.07;;;9.20;94.50;;;;;;4995415;28;20037;-58
2022/12/22 18:55:23;;;;;;;24.25;12.30;;;9.20;94.50;;;;;;5013271;28;20030;-58
2022/12/22 18:57:51;;;;;;;20.05;10.40;;;9.30;94.50;;;;;;4995717;28;20030;-59
2022/12/22 19:00:20;;;;;;;24.63;10.73;;;9.30;94.60;;;;;;5013281;28;20092;-58
2022/12/22 19:02:48;;;;;;;28.10;12.13;;;9.20;94.60;;;;;;5026527;28;20041;-53
2022/12/22 19:05:19;;;;;;;26.38;12.38;;;9.30;94.70;;;;;;5033081;28;20437;-56
2022/12/22 19:07:46;;;;;;;25.10;13.23;;;9.30;94.70;;;;;;5032524;28;20049;-57
2022/12/22 19:10:29;;;;;;;21.15;9.40;;;9.30;94.80;;;;;;5032806;28;20035;-58
2022/12/22 19:12:56;;;;;;;22.42;10.57;;;9.30;94.80;;;;;;5032842;28;20113;-56
2022/12/22 19:15:31;;;;;;;23.98;11.90;;;9.20;94.90;;;;;;5033201;28;20038;-60
2022/12/22 19:17:57;;;;;;;24.92;10.68;;;9.30;94.90;;;;;;5032524;28;20104;-56
2022/12/22 19:20:25;;;;;;;22.80;9.75;;;9.30;94.90;;;;;;5032510;28;20071;-61
2022/12/22 19:22:51;;;;;;;21.55;9.75;;;9.40;94.90;;;;;;5032288;28;20429;-56
2022/12/22 19:25:19;;;;;;;19.90;8.90;;;9.40;94.90;;;;;;5032408;28;20021;-57
2022/12/22 19:27:47;;;;;;;26.92;8.65;;;9.30;94.80;;;;;;5033173;28;20024;-60
2022/12/22 19:30:24;;;;;;;22.40;8.02;;;9.30;94.90;;;;;;5032719;28;20025;-56
2022/12/22 19:32:59;;;;;;;20.40;8.52;;;9.30;94.90;;;;;;5032941;28;20527;-61
2022/12/22 19:35:25;;;;;;;18.08;7.32;;;9.30;95.00;;;;;;5032787;28;20049;-58
2022/12/22 19:37:52;;;;;;;21.45;8.30;;;9.30;95.10;;;;;;5031211;28;20060;-60
2022/12/22 19:40:20;;;;;;;20.27;7.85;;;9.40;95.10;;;;;;5032680;28;20041;-57
2022/12/22 19:42:48;;;;;;;19.63;8.50;;;9.40;95.20;;;;;;5032444;28;20030;-57
2022/12/22 19:45:21;;;;;;;15.40;8.55;;;9.40;95.10;;;;;;5032565;28;20021;-59
2022/12/22 19:47:48;;;;;;;14.68;6.95;;;9.40;95.10;;;;;;5033078;28;20025;-61
2022/12/22 19:50:19;;;;;;;24.80;6.88;;;9.40;95.20;;;;;;5036644;28;20021;-59
2022/12/22 19:52:45;;;;;;;26.67;7.60;;;9.40;95.10;;;;;;5034952;28;20434;-62
2022/12/22 19:55:11;;;;;;;15.60;7.38;;;9.40;95.10;;;;;;5034888;28;20079;-63
2022/12/22 19:57:40;;;;;;;24.10;8.02;;;9.40;95.20;;;;;;5034957;28;20029;-62
2022/12/22 20:00:26;;;;;;;37.17;9.32;;;9.50;95.20;;;;;;5035782;28;20021;-61
2022/12/22 20:02:54;;;;;;;16.17;6.30;;;9.50;95.20;;;;;;5017506;28;20046;-62
2022/12/22 20:05:22;;;;;;;18.48;6.88;;;9.40;95.20;;;;;;5016369;28;20075;-62
2022/12/22 20:07:54;;;;;;;22.17;6.88;;;9.40;95.20;;;;;;5016279;28;20494;-62
2022/12/22 20:10:21;;;;;;;16.60;6.40;;;9.50;95.30;;;;;;5016464;28;20034;-65
2022/12/22 20:12:49;;;;;;;20.83;7.25;;;9.50;95.30;;;;;;5016209;28;20117;-62
2022/12/22 20:15:17;;;;;;;18.30;8.10;;;9.50;95.30;;;;;;5016241;28;20022;-61
2022/12/22 20:17:44;;;;;;;24.45;8.82;;;9.50;95.30;;;;;;5016146;28;20026;-63
2022/12/22 20:20:18;;;;;;;25.25;8.15;;;9.60;95.30;;;;;;5016256;28;20076;-61
2022/12/22 20:22:48;;;;;;;22.38;9.52;;;9.70;95.30;;;;;;5016170;28;20069;-61
2022/12/22 20:25:20;;;;;;;28.10;8.60;;;9.60;95.20;;;;;;5016274;28;20026;-60
2022/12/22 20:27:47;;;;;;;19.02;6.72;;;9.70;95.30;;;;;;5016198;28;20109;-61
2022/12/22 20:30:27;;;;;;;23.65;7.55;;;9.70;95.30;;;;;;5015837;28;20030;-61
2022/12/22 20:32:53;;;;;;;23.27;8.88;;;9.70;95.30;;;;;;5016289;28;20026;-61
2022/12/22 20:35:20;;;;;;;32.20;8.18;;;9.70;95.30;;;;;;5015849;28;20037;-62
2022/12/22 20:37:47;;;;;;;18.88;7.68;;;9.80;95.30;;;;;;5015791;28;20040;-62
2022/12/22 20:40:29;;;;;;;25.35;6.63;;;9.80;95.30;;;;;;5015771;28;20417;-60
2022/12/22 20:42:56;;;;;;;25.00;8.65;;;9.80;95.30;;;;;;5015649;28;20525;-62
2022/12/22 20:45:21;;;;;;;26.33;8.18;;;9.80;95.40;;;;;;5015872;28;20370;-59
2022/12/22 20:47:49;;;;;;;23.48;7.60;;;9.80;95.40;;;;;;5015567;28;20022;-61
2022/12/22 20:50:26;;;;;;;28.83;9.10;;;9.80;95.40;;;;;;5015751;28;20041;-60
2022/12/22 20:52:53;;;;;;;20.75;7.05;;;9.80;95.50;;;;;;5015450;28;20030;-59
2022/12/22 20:55:21;;;;;;;43.05;11.27;;;9.80;95.60;;;;;;5015388;28;20033;-59
2022/12/22 20:57:48;;;;;;;26.40;8.40;;;9.80;95.70;;;;;;5015405;28;20033;-61
2022/12/22 21:00:20;;;;;;;25.20;10.02;;;9.80;95.70;;;;;;5015612;28;20033;-60
